sensor_id;sensor_type;location;lat;lon;timestamp;pressure;altitude;pressure_sealevel;temperature;humidity
62680;BME280;68213;40.528;44.712;2023-05-01T00:00:46;80014.22;;;4.96;53.03
62680;BME280;68213;40.528;44.712;2023-05-01T00:01:48;80006.97;;;4.94;52.88
62680;BME280;68213;40.528;44.712;2023-05-01T00:02:48;80010.53;;;4.89;54.19
62680;BME280;68213;40.528;44.712;2023-05-01T00:03:49;80021.38;;;4.85;53.93
62680;BME280;68213;40.528;44.712;2023-05-01T00:04:50;80023.44;;;4.87;54.28
62680;BME280;68213;40.528;44.712;2023-05-01T00:05:57;80027.81;;;4.84;54.57
62680;BME280;68213;40.528;44.712;2023-05-01T00:07:01;80019.09;;;4.80;55.38
62680;BME280;68213;40.528;44.712;2023-05-01T00:08:01;80026.06;;;4.77;55.96
62680;BME280;68213;40.528;44.712;2023-05-01T00:09:02;80022.66;;;4.74;55.86
62680;BME280;68213;40.528;44.712;2023-05-01T00:10:03;80001.28;;;4.44;56.64
62680;BME280;68213;40.528;44.712;2023-05-01T00:11:05;80015.34;;;4.61;56.95
62680;BME280;68213;40.528;44.712;2023-05-01T00:12:09;80025.44;;;4.67;56.54
62680;BME280;68213;40.528;44.712;2023-05-01T00:13:10;80015.84;;;4.69;56.47
62680;BME280;68213;40.528;44.712;2023-05-01T00:14:12;80016.53;;;4.70;56.72
62680;BME280;68213;40.528;44.712;2023-05-01T00:15:12;80006.38;;;4.74;56.67
62680;BME280;68213;40.528;44.712;2023-05-01T00:16:13;80007.31;;;4.79;56.52
62680;BME280;68213;40.528;44.712;2023-05-01T00:17:15;80000.97;;;4.82;56.26
62680;BME280;68213;40.528;44.712;2023-05-01T00:18:15;80009.44;;;4.92;56.66
62680;BME280;68213;40.528;44.712;2023-05-01T00:19:17;79999.00;;;4.92;57.01
62680;BME280;68213;40.528;44.712;2023-05-01T00:20:18;79997.78;;;4.93;57.66
62680;BME280;68213;40.528;44.712;2023-05-01T00:21:19;80001.84;;;4.96;57.51
62680;BME280;68213;40.528;44.712;2023-05-01T00:22:19;79999.69;;;4.92;58.41
62680;BME280;68213;40.528;44.712;2023-05-01T00:23:20;79997.50;;;4.89;59.02
62680;BME280;68213;40.528;44.712;2023-05-01T00:24:21;79992.50;;;4.81;60.15
62680;BME280;68213;40.528;44.712;2023-05-01T00:25:22;79988.81;;;4.74;60.83
62680;BME280;68213;40.528;44.712;2023-05-01T00:26:23;79991.47;;;4.65;61.56
62680;BME280;68213;40.528;44.712;2023-05-01T00:27:30;79980.84;;;4.51;63.72
62680;BME280;68213;40.528;44.712;2023-05-01T00:28:31;79987.41;;;4.52;63.36
62680;BME280;68213;40.528;44.712;2023-05-01T00:29:35;79992.53;;;4.50;63.08
62680;BME280;68213;40.528;44.712;2023-05-01T00:30:35;79993.06;;;4.48;62.88
62680;BME280;68213;40.528;44.712;2023-05-01T00:31:36;79985.66;;;4.44;62.51
62680;BME280;68213;40.528;44.712;2023-05-01T00:32:37;79986.06;;;4.51;62.43
62680;BME280;68213;40.528;44.712;2023-05-01T00:33:38;79986.38;;;4.45;62.63
62680;BME280;68213;40.528;44.712;2023-05-01T00:34:39;79988.84;;;4.43;62.89
62680;BME280;68213;40.528;44.712;2023-05-01T00:36:55;79990.50;;;4.38;64.02
62680;BME280;68213;40.528;44.712;2023-05-01T00:37:56;79986.94;;;4.34;64.58
62680;BME280;68213;40.528;44.712;2023-05-01T00:38:57;79985.72;;;4.35;63.86
62680;BME280;68213;40.528;44.712;2023-05-01T00:39:58;79990.91;;;4.35;63.59
62680;BME280;68213;40.528;44.712;2023-05-01T00:40:59;79979.06;;;4.22;62.58
62680;BME280;68213;40.528;44.712;2023-05-01T00:41:59;79991.63;;;4.35;62.56
62680;BME280;68213;40.528;44.712;2023-05-01T00:43:01;79990.91;;;4.35;63.67
62680;BME280;68213;40.528;44.712;2023-05-01T00:44:02;79967.97;;;4.21;64.36
62680;BME280;68213;40.528;44.712;2023-05-01T00:45:07;79994.97;;;4.16;66.70
62680;BME280;68213;40.528;44.712;2023-05-01T00:46:08;79989.38;;;4.10;67.36
62680;BME280;68213;40.528;44.712;2023-05-01T00:47:09;79991.03;;;4.05;66.65
62680;BME280;68213;40.528;44.712;2023-05-01T00:48:10;79989.78;;;4.06;65.52
62680;BME280;68213;40.528;44.712;2023-05-01T00:49:12;79979.41;;;3.96;65.26
62680;BME280;68213;40.528;44.712;2023-05-01T00:50:13;79989.81;;;3.96;65.05
62680;BME280;68213;40.528;44.712;2023-05-01T00:51:14;79994.22;;;3.94;64.34
62680;BME280;68213;40.528;44.712;2023-05-01T00:52:15;79997.19;;;4.00;64.04
62680;BME280;68213;40.528;44.712;2023-05-01T00:53:16;79990.91;;;4.03;63.56
62680;BME280;68213;40.528;44.712;2023-05-01T00:54:18;79976.28;;;3.98;63.65
62680;BME280;68213;40.528;44.712;2023-05-01T00:55:19;79978.72;;;4.06;64.16
62680;BME280;68213;40.528;44.712;2023-05-01T00:56:21;79978.03;;;4.05;64.27
62680;BME280;68213;40.528;44.712;2023-05-01T00:57:22;79975.69;;;4.09;62.97
62680;BME280;68213;40.528;44.712;2023-05-01T00:58:22;79979.13;;;4.02;63.51
62680;BME280;68213;40.528;44.712;2023-05-01T00:59:23;79970.09;;;4.03;63.04
62680;BME280;68213;40.528;44.712;2023-05-01T01:00:24;79976.66;;;4.04;62.68
62680;BME280;68213;40.528;44.712;2023-05-01T01:01:25;79968.06;;;4.02;62.68
62680;BME280;68213;40.528;44.712;2023-05-01T01:02:26;79959.31;;;3.87;63.31
62680;BME280;68213;40.528;44.712;2023-05-01T01:03:27;79968.91;;;3.94;62.95
62680;BME280;68213;40.528;44.712;2023-05-01T01:04:27;79972.84;;;3.95;63.17
62680;BME280;68213;40.528;44.712;2023-05-01T01:05:32;79966.97;;;3.95;63.27
62680;BME280;68213;40.528;44.712;2023-05-01T01:06:51;79969.44;;;3.93;63.74
62680;BME280;68213;40.528;44.712;2023-05-01T01:08:17;79964.28;;;3.83;64.96
62680;BME280;68213;40.528;44.712;2023-05-01T01:09:34;79968.94;;;3.75;65.35
62680;BME280;68213;40.528;44.712;2023-05-01T01:10:54;79973.19;;;3.70;65.91
62680;BME280;68213;40.528;44.712;2023-05-01T01:12:05;79966.78;;;3.61;66.00
62680;BME280;68213;40.528;44.712;2023-05-01T01:13:18;79959.28;;;3.56;65.81
62680;BME280;68213;40.528;44.712;2023-05-01T01:14:25;79969.41;;;3.52;65.89
62680;BME280;68213;40.528;44.712;2023-05-01T01:15:32;79972.56;;;3.40;66.43
62680;BME280;68213;40.528;44.712;2023-05-01T01:16:47;79973.94;;;3.41;66.56
62680;BME280;68213;40.528;44.712;2023-05-01T01:17:58;79967.53;;;3.32;66.55
62680;BME280;68213;40.528;44.712;2023-05-01T01:20:35;79968.75;;;3.31;65.51
62680;BME280;68213;40.528;44.712;2023-05-01T01:21:40;79969.31;;;3.30;65.32
62680;BME280;68213;40.528;44.712;2023-05-01T01:22:46;79976.97;;;3.28;65.92
62680;BME280;68213;40.528;44.712;2023-05-01T01:28:23;79992.56;;;3.08;66.00
62680;BME280;68213;40.528;44.712;2023-05-01T01:29:50;79985.19;;;3.05;66.50
62680;BME280;68213;40.528;44.712;2023-05-01T01:33:52;79985.72;;;2.93;66.67
62680;BME280;68213;40.528;44.712;2023-05-01T01:35:05;79987.34;;;2.89;66.86
62680;BME280;68213;40.528;44.712;2023-05-01T01:36:19;79981.59;;;2.80;67.10
62680;BME280;68213;40.528;44.712;2023-05-01T01:37:27;79984.75;;;2.69;67.21
62680;BME280;68213;40.528;44.712;2023-05-01T01:38:36;79989.63;;;2.65;67.50
62680;BME280;68213;40.528;44.712;2023-05-01T01:39:52;79987.19;;;2.57;68.25
62680;BME280;68213;40.528;44.712;2023-05-01T01:41:25;79995.22;;;2.61;67.43
62680;BME280;68213;40.528;44.712;2023-05-01T01:42:36;79991.00;;;2.56;67.98
62680;BME280;68213;40.528;44.712;2023-05-01T01:43:41;79996.75;;;2.54;68.00
62680;BME280;68213;40.528;44.712;2023-05-01T01:44:49;79989.50;;;2.53;67.29
62680;BME280;68213;40.528;44.712;2023-05-01T01:45:57;79994.94;;;2.47;67.70
62680;BME280;68213;40.528;44.712;2023-05-01T01:46:59;79987.16;;;2.47;67.24
62680;BME280;68213;40.528;44.712;2023-05-01T01:48:04;79989.91;;;2.49;67.21
62680;BME280;68213;40.528;44.712;2023-05-01T01:49:12;79997.53;;;2.47;67.28
62680;BME280;68213;40.528;44.712;2023-05-01T01:50:16;79994.81;;;2.45;66.61
62680;BME280;68213;40.528;44.712;2023-05-01T01:51:20;79999.59;;;2.49;66.69
62680;BME280;68213;40.528;44.712;2023-05-01T01:52:22;79988.41;;;2.46;66.70
62680;BME280;68213;40.528;44.712;2023-05-01T01:53:25;79997.69;;;2.49;66.57
62680;BME280;68213;40.528;44.712;2023-05-01T01:54:50;80001.22;;;2.44;66.61
62680;BME280;68213;40.528;44.712;2023-05-01T01:55:53;80001.38;;;2.46;65.87
62680;BME280;68213;40.528;44.712;2023-05-01T01:56:54;79997.53;;;2.47;65.54
62680;BME280;68213;40.528;44.712;2023-05-01T01:57:58;79997.53;;;2.47;65.09
62680;BME280;68213;40.528;44.712;2023-05-01T01:59:00;80006.69;;;2.48;65.08
62680;BME280;68213;40.528;44.712;2023-05-01T02:00:01;79994.66;;;2.43;66.09
62680;BME280;68213;40.528;44.712;2023-05-01T02:01:04;79995.47;;;2.46;65.52
62680;BME280;68213;40.528;44.712;2023-05-01T02:02:06;79996.19;;;2.46;65.76
62680;BME280;68213;40.528;44.712;2023-05-01T02:03:09;79987.97;;;2.40;65.33
62680;BME280;68213;40.528;44.712;2023-05-01T02:04:12;80003.00;;;2.51;65.01
62680;BME280;68213;40.528;44.712;2023-05-01T02:05:15;79997.97;;;2.53;64.81
62680;BME280;68213;40.528;44.712;2023-05-01T02:06:16;79994.69;;;2.53;65.16
62680;BME280;68213;40.528;44.712;2023-05-01T02:07:18;79999.47;;;2.57;65.17
62680;BME280;68213;40.528;44.712;2023-05-01T02:08:20;79975.81;;;2.43;65.15
62680;BME280;68213;40.528;44.712;2023-05-01T02:09:23;79972.81;;;2.46;65.42
62680;BME280;68213;40.528;44.712;2023-05-01T02:10:26;79994.56;;;2.61;65.43
62680;BME280;68213;40.528;44.712;2023-05-01T02:11:29;79973.78;;;2.41;65.44
62680;BME280;68213;40.528;44.712;2023-05-01T02:12:32;79998.22;;;2.58;65.34
62680;BME280;68213;40.528;44.712;2023-05-01T02:13:35;79995.63;;;2.58;65.68
62680;BME280;68213;40.528;44.712;2023-05-01T02:14:58;80002.75;;;2.57;65.49
62680;BME280;68213;40.528;44.712;2023-05-01T02:16:01;79966.81;;;2.34;65.80
62680;BME280;68213;40.528;44.712;2023-05-01T02:17:03;79999.47;;;2.57;65.77
62680;BME280;68213;40.528;44.712;2023-05-01T02:18:05;80001.22;;;2.54;66.16
62680;BME280;68213;40.528;44.712;2023-05-01T02:19:06;80006.81;;;2.50;66.28
62680;BME280;68213;40.528;44.712;2023-05-01T02:20:09;80004.22;;;2.50;66.06
62680;BME280;68213;40.528;44.712;2023-05-01T02:21:10;80010.38;;;2.45;66.83
62680;BME280;68213;40.528;44.712;2023-05-01T02:22:13;80014.50;;;2.48;66.40
62680;BME280;68213;40.528;44.712;2023-05-01T02:23:15;80008.84;;;2.32;66.81
62680;BME280;68213;40.528;44.712;2023-05-01T02:24:17;80011.44;;;2.42;66.31
62680;BME280;68213;40.528;44.712;2023-05-01T02:25:19;80011.19;;;2.38;66.84
62680;BME280;68213;40.528;44.712;2023-05-01T02:26:23;80020.75;;;2.45;66.39
62680;BME280;68213;40.528;44.712;2023-05-01T02:27:31;80015.16;;;2.49;66.07
62680;BME280;68213;40.528;44.712;2023-05-01T02:28:35;80004.38;;;2.52;66.09
62680;BME280;68213;40.528;44.712;2023-05-01T02:29:40;80009.88;;;2.57;65.75
62680;BME280;68213;40.528;44.712;2023-05-01T02:30:44;80006.16;;;2.60;65.45
62680;BME280;68213;40.528;44.712;2023-05-01T02:31:46;79994.16;;;2.54;65.49
62680;BME280;68213;40.528;44.712;2023-05-01T02:32:47;80011.91;;;2.68;65.28
62680;BME280;68213;40.528;44.712;2023-05-01T02:33:48;80004.81;;;2.68;64.93
62680;BME280;68213;40.528;44.712;2023-05-01T02:34:48;80004.69;;;2.76;65.25
62680;BME280;68213;40.528;44.712;2023-05-01T02:35:49;80002.91;;;2.79;65.08
62680;BME280;68213;40.528;44.712;2023-05-01T02:36:50;80009.31;;;2.68;65.44
62680;BME280;68213;40.528;44.712;2023-05-01T02:37:50;80005.91;;;2.75;65.17
62680;BME280;68213;40.528;44.712;2023-05-01T02:38:52;80016.44;;;2.77;65.59
62680;BME280;68213;40.528;44.712;2023-05-01T02:39:53;80013.59;;;2.83;65.21
62680;BME280;68213;40.528;44.712;2023-05-01T02:40:56;80021.50;;;2.85;65.33
62680;BME280;68213;40.528;44.712;2023-05-01T02:41:57;80018.50;;;2.89;65.29
62680;BME280;68213;40.528;44.712;2023-05-01T02:43:04;80015.50;;;2.92;64.77
62680;BME280;68213;40.528;44.712;2023-05-01T02:44:08;80013.44;;;2.91;65.29
62680;BME280;68213;40.528;44.712;2023-05-01T02:45:12;80013.59;;;2.93;65.31
62680;BME280;68213;40.528;44.712;2023-05-01T02:46:15;80017.81;;;2.98;65.33
62680;BME280;68213;40.528;44.712;2023-05-01T02:47:19;80014.56;;;2.97;65.62
62680;BME280;68213;40.528;44.712;2023-05-01T02:48:26;80012.09;;;2.99;65.55
62680;BME280;68213;40.528;44.712;2023-05-01T02:49:28;80020.84;;;3.04;65.52
62680;BME280;68213;40.528;44.712;2023-05-01T02:50:31;79998.84;;;2.85;65.04
62680;BME280;68213;40.528;44.712;2023-05-01T02:51:35;79994.56;;;2.80;65.19
62680;BME280;68213;40.528;44.712;2023-05-01T02:52:40;80027.25;;;3.03;65.23
62680;BME280;68213;40.528;44.712;2023-05-01T02:53:41;80022.06;;;3.03;65.29
62680;BME280;68213;40.528;44.712;2023-05-01T02:54:43;80018.38;;;3.06;65.32
62680;BME280;68213;40.528;44.712;2023-05-01T02:55:47;80024.66;;;3.13;64.83
62680;BME280;68213;40.528;44.712;2023-05-01T02:56:47;80024.41;;;3.18;64.90
62680;BME280;68213;40.528;44.712;2023-05-01T02:57:50;80020.72;;;3.22;65.06
62680;BME280;68213;40.528;44.712;2023-05-01T02:58:54;80027.69;;;3.29;64.55
62680;BME280;68213;40.528;44.712;2023-05-01T02:59:55;80020.97;;;3.36;64.36
62680;BME280;68213;40.528;44.712;2023-05-01T03:00:55;80023.28;;;3.41;64.51
62680;BME280;68213;40.528;44.712;2023-05-01T03:01:56;80023.03;;;3.47;64.31
62680;BME280;68213;40.528;44.712;2023-05-01T03:02:57;80022.63;;;3.51;64.19
62680;BME280;68213;40.528;44.712;2023-05-01T03:03:58;80025.47;;;3.55;63.83
62680;BME280;68213;40.528;44.712;2023-05-01T03:04:58;80023.16;;;3.59;63.89
62680;BME280;68213;40.528;44.712;2023-05-01T03:05:59;80023.56;;;3.65;63.50
62680;BME280;68213;40.528;44.712;2023-05-01T03:07:00;80019.31;;;3.70;63.12
62680;BME280;68213;40.528;44.712;2023-05-01T03:08:00;80002.50;;;3.61;62.84
62680;BME280;68213;40.528;44.712;2023-05-01T03:09:01;80016.44;;;3.75;63.36
62680;BME280;68213;40.528;44.712;2023-05-01T03:10:05;79997.16;;;3.69;63.48
62680;BME280;68213;40.528;44.712;2023-05-01T03:11:07;80016.00;;;3.79;63.68
62680;BME280;68213;40.528;44.712;2023-05-01T03:12:07;80018.19;;;3.83;63.57
62680;BME280;68213;40.528;44.712;2023-05-01T03:13:09;80015.03;;;3.84;64.02
62680;BME280;68213;40.528;44.712;2023-05-01T03:14:10;80018.19;;;3.83;64.29
62680;BME280;68213;40.528;44.712;2023-05-01T03:15:11;80015.31;;;3.78;64.25
62680;BME280;68213;40.528;44.712;2023-05-01T03:16:12;80014.75;;;3.80;64.13
62680;BME280;68213;40.528;44.712;2023-05-01T03:17:13;80012.56;;;3.86;64.04
62680;BME280;68213;40.528;44.712;2023-05-01T03:18:13;80010.66;;;3.87;64.08
62680;BME280;68213;40.528;44.712;2023-05-01T03:19:14;80016.13;;;3.91;64.12
62680;BME280;68213;40.528;44.712;2023-05-01T03:20:15;80012.97;;;3.92;64.19
62680;BME280;68213;40.528;44.712;2023-05-01T03:21:22;80013.22;;;3.96;64.07
62680;BME280;68213;40.528;44.712;2023-05-01T03:22:23;80009.41;;;3.97;64.07
62680;BME280;68213;40.528;44.712;2023-05-01T03:23:24;80016.34;;;4.05;63.97
62680;BME280;68213;40.528;44.712;2023-05-01T03:24:24;80017.06;;;4.05;64.07
62680;BME280;68213;40.528;44.712;2023-05-01T03:25:25;80014.31;;;4.03;64.00
62680;BME280;68213;40.528;44.712;2023-05-01T03:26:26;80020.75;;;4.02;64.09
62680;BME280;68213;40.528;44.712;2023-05-01T03:27:29;80018.03;;;3.90;64.69
62680;BME280;68213;40.528;44.712;2023-05-01T03:28:30;80003.66;;;3.89;64.55
62680;BME280;68213;40.528;44.712;2023-05-01T03:29:31;80001.19;;;3.91;64.36
62680;BME280;68213;40.528;44.712;2023-05-01T03:30:33;80010.59;;;4.06;64.63
62680;BME280;68213;40.528;44.712;2023-05-01T03:31:34;80011.81;;;4.15;64.37
62680;BME280;68213;40.528;44.712;2023-05-01T03:32:35;80007.66;;;4.22;64.08
62680;BME280;68213;40.528;44.712;2023-05-01T03:33:39;80013.16;;;4.26;64.55
62680;BME280;68213;40.528;44.712;2023-05-01T03:34:40;80009.00;;;4.33;64.42
62680;BME280;68213;40.528;44.712;2023-05-01T03:35:41;80008.72;;;4.38;64.05
62680;BME280;68213;40.528;44.712;2023-05-01T03:36:41;80012.25;;;4.43;63.57
62680;BME280;68213;40.528;44.712;2023-05-01T03:37:42;80011.16;;;4.46;64.67
62680;BME280;68213;40.528;44.712;2023-05-01T03:38:46;80009.78;;;4.45;65.17
62680;BME280;68213;40.528;44.712;2023-05-01T03:39:49;80011.84;;;4.47;65.59
62680;BME280;68213;40.528;44.712;2023-05-01T03:40:51;80017.03;;;4.47;65.69
62680;BME280;68213;40.528;44.712;2023-05-01T03:41:51;80018.53;;;4.50;65.05
62680;BME280;68213;40.528;44.712;2023-05-01T03:42:52;80013.44;;;4.52;64.81
62680;BME280;68213;40.528;44.712;2023-05-01T03:43:52;80013.28;;;4.59;65.14
62680;BME280;68213;40.528;44.712;2023-05-01T03:44:53;80018.50;;;4.59;64.52
62680;BME280;68213;40.528;44.712;2023-05-01T03:45:54;80018.31;;;4.67;64.04
62680;BME280;68213;40.528;44.712;2023-05-01T03:46:55;80017.88;;;4.71;64.04
62680;BME280;68213;40.528;44.712;2023-05-01T03:47:56;80014.31;;;4.76;64.67
62680;BME280;68213;40.528;44.712;2023-05-01T03:48:56;80015.94;;;4.81;64.31
62680;BME280;68213;40.528;44.712;2023-05-01T03:49:57;80015.75;;;4.89;63.39
62680;BME280;68213;40.528;44.712;2023-05-01T03:50:57;80018.63;;;4.93;63.95
62680;BME280;68213;40.528;44.712;2023-05-01T03:52:01;80022.59;;;4.94;63.65
62680;BME280;68213;40.528;44.712;2023-05-01T03:53:01;80018.56;;;5.03;63.76
62680;BME280;68213;40.528;44.712;2023-05-01T03:54:02;80014.94;;;5.08;63.49
62680;BME280;68213;40.528;44.712;2023-05-01T03:55:03;80023.28;;;5.16;62.54
62680;BME280;68213;40.528;44.712;2023-05-01T03:56:04;80017.63;;;5.20;62.41
62680;BME280;68213;40.528;44.712;2023-05-01T03:57:06;80019.34;;;5.27;61.50
62680;BME280;68213;40.528;44.712;2023-05-01T03:58:08;80012.34;;;5.30;61.18
62680;BME280;68213;40.528;44.712;2023-05-01T03:59:10;80008.56;;;5.43;60.56
62680;BME280;68213;40.528;44.712;2023-05-01T04:00:12;80013.19;;;5.44;60.76
62680;BME280;68213;40.528;44.712;2023-05-01T04:01:12;80016.13;;;5.38;60.95
62680;BME280;68213;40.528;44.712;2023-05-01T04:02:14;80016.81;;;5.39;60.32
62680;BME280;68213;40.528;44.712;2023-05-01T04:03:14;80007.53;;;5.36;59.70
62680;BME280;68213;40.528;44.712;2023-05-01T04:04:15;80013.09;;;5.42;60.65
62680;BME280;68213;40.528;44.712;2023-05-01T04:05:16;80010.78;;;5.58;61.20
62680;BME280;68213;40.528;44.712;2023-05-01T04:06:17;80011.56;;;5.61;59.97
62680;BME280;68213;40.528;44.712;2023-05-01T04:07:18;80003.44;;;5.66;59.58
62680;BME280;68213;40.528;44.712;2023-05-01T04:08:19;80011.44;;;5.59;60.10
62680;BME280;68213;40.528;44.712;2023-05-01T04:09:20;80012.38;;;5.63;59.52
62680;BME280;68213;40.528;44.712;2023-05-01T04:10:24;79991.91;;;5.48;60.24
62680;BME280;68213;40.528;44.712;2023-05-01T04:11:24;80013.00;;;5.74;59.37
62680;BME280;68213;40.528;44.712;2023-05-01T04:12:25;80013.84;;;5.88;59.25
62680;BME280;68213;40.528;44.712;2023-05-01T04:13:26;80016.91;;;5.96;59.62
62680;BME280;68213;40.528;44.712;2023-05-01T04:14:27;80020.38;;;6.11;59.47
62680;BME280;68213;40.528;44.712;2023-05-01T04:15:28;80011.88;;;6.10;58.79
62680;BME280;68213;40.528;44.712;2023-05-01T04:16:29;80011.88;;;6.22;57.95
62680;BME280;68213;40.528;44.712;2023-05-01T04:17:30;80018.25;;;6.19;57.46
62680;BME280;68213;40.528;44.712;2023-05-01T04:18:31;80023.34;;;6.17;58.63
62680;BME280;68213;40.528;44.712;2023-05-01T04:19:31;80021.09;;;6.23;58.76
62680;BME280;68213;40.528;44.712;2023-05-01T04:20:34;80022.19;;;6.08;58.22
62680;BME280;68213;40.528;44.712;2023-05-01T04:21:35;80020.38;;;6.11;58.96
62680;BME280;68213;40.528;44.712;2023-05-01T04:22:36;80021.31;;;6.15;59.44
62680;BME280;68213;40.528;44.712;2023-05-01T04:23:36;80009.94;;;6.11;59.15
62680;BME280;68213;40.528;44.712;2023-05-01T04:24:37;79984.06;;;5.69;60.42
62680;BME280;68213;40.528;44.712;2023-05-01T04:25:38;80019.81;;;6.12;59.72
62680;BME280;68213;40.528;44.712;2023-05-01T04:26:41;80022.69;;;6.16;59.68
62680;BME280;68213;40.528;44.712;2023-05-01T04:27:42;80025.38;;;6.18;59.53
62680;BME280;68213;40.528;44.712;2023-05-01T04:28:43;80021.88;;;6.26;59.16
62680;BME280;68213;40.528;44.712;2023-05-01T04:29:44;80022.56;;;6.14;59.51
62680;BME280;68213;40.528;44.712;2023-05-01T04:30:45;80025.47;;;6.09;58.30
62680;BME280;68213;40.528;44.712;2023-05-01T04:31:45;80036.28;;;6.15;58.89
62680;BME280;68213;40.528;44.712;2023-05-01T04:32:46;80041.16;;;6.21;58.73
62680;BME280;68213;40.528;44.712;2023-05-01T04:33:47;80036.03;;;6.11;58.30
62680;BME280;68213;40.528;44.712;2023-05-01T04:34:47;80045.81;;;6.10;58.68
62680;BME280;68213;40.528;44.712;2023-05-01T04:35:48;80045.00;;;6.08;58.52
62680;BME280;68213;40.528;44.712;2023-05-01T04:36:49;80044.81;;;5.94;58.74
62680;BME280;68213;40.528;44.712;2023-05-01T04:37:51;80044.69;;;5.92;58.37
62680;BME280;68213;40.528;44.712;2023-05-01T04:38:52;80050.47;;;5.90;58.89
62680;BME280;68213;40.528;44.712;2023-05-01T04:39:52;80048.41;;;5.88;59.03
62680;BME280;68213;40.528;44.712;2023-05-01T04:40:53;80043.31;;;5.91;58.82
62680;BME280;68213;40.528;44.712;2023-05-01T04:41:56;80042.31;;;5.96;59.11
62680;BME280;68213;40.528;44.712;2023-05-01T04:42:57;80038.91;;;5.93;59.77
62680;BME280;68213;40.528;44.712;2023-05-01T04:43:57;80045.06;;;5.98;59.45
62680;BME280;68213;40.528;44.712;2023-05-01T04:45:00;80033.47;;;5.89;60.28
62680;BME280;68213;40.528;44.712;2023-05-01T04:46:03;80039.66;;;6.06;59.45
62680;BME280;68213;40.528;44.712;2023-05-01T04:47:04;80047.84;;;6.12;59.88
62680;BME280;68213;40.528;44.712;2023-05-01T04:48:05;80047.06;;;6.09;60.72
62680;BME280;68213;40.528;44.712;2023-05-01T04:49:06;80046.06;;;5.93;61.86
62680;BME280;68213;40.528;44.712;2023-05-01T04:50:07;80047.25;;;6.01;62.27
62680;BME280;68213;40.528;44.712;2023-05-01T04:51:08;80021.31;;;5.82;62.65
62680;BME280;68213;40.528;44.712;2023-05-01T04:52:09;80044.66;;;5.80;62.42
62680;BME280;68213;40.528;44.712;2023-05-01T04:53:10;80044.50;;;5.66;63.65
62680;BME280;68213;40.528;44.712;2023-05-01T04:54:13;80047.28;;;5.58;63.97
62680;BME280;68213;40.528;44.712;2023-05-01T04:55:13;80046.53;;;5.67;64.75
62680;BME280;68213;40.528;44.712;2023-05-01T04:56:14;80037.91;;;5.65;65.42
62680;BME280;68213;40.528;44.712;2023-05-01T04:57:15;80031.22;;;5.40;67.01
62680;BME280;68213;40.528;44.712;2023-05-01T04:58:15;80045.91;;;5.35;65.94
62680;BME280;68213;40.528;44.712;2023-05-01T04:59:16;80055.84;;;5.27;64.86
62680;BME280;68213;40.528;44.712;2023-05-01T05:00:17;80044.47;;;5.44;65.42
62680;BME280;68213;40.528;44.712;2023-05-01T05:01:18;80049.75;;;5.56;64.05
62680;BME280;68213;40.528;44.712;2023-05-01T05:02:19;80049.28;;;5.69;63.04
62680;BME280;68213;40.528;44.712;2023-05-01T05:03:20;80034.88;;;5.68;63.96
62680;BME280;68213;40.528;44.712;2023-05-01T05:04:20;80039.75;;;5.52;66.18
62680;BME280;68213;40.528;44.712;2023-05-01T05:05:21;80047.94;;;5.59;64.21
62680;BME280;68213;40.528;44.712;2023-05-01T05:06:22;80028.66;;;5.52;61.98
62680;BME280;68213;40.528;44.712;2023-05-01T05:07:22;80046.66;;;5.69;63.10
62680;BME280;68213;40.528;44.712;2023-05-01T05:08:23;80050.06;;;5.72;63.40
62680;BME280;68213;40.528;44.712;2023-05-01T05:09:26;80043.97;;;5.79;61.76
62680;BME280;68213;40.528;44.712;2023-05-01T05:10:26;80036.19;;;5.91;61.29
62680;BME280;68213;40.528;44.712;2023-05-01T05:11:27;80033.59;;;5.91;60.42
62680;BME280;68213;40.528;44.712;2023-05-01T05:12:28;80040.34;;;6.06;60.97
62680;BME280;68213;40.528;44.712;2023-05-01T05:13:28;80025.00;;;6.00;60.52
62680;BME280;68213;40.528;44.712;2023-05-01T05:14:30;80050.06;;;6.27;59.76
62680;BME280;68213;40.528;44.712;2023-05-01T05:15:30;80049.69;;;6.33;60.14
62680;BME280;68213;40.528;44.712;2023-05-01T05:16:31;80049.28;;;6.37;60.49
62680;BME280;68213;40.528;44.712;2023-05-01T05:17:32;80029.22;;;6.06;61.61
62680;BME280;68213;40.528;44.712;2023-05-01T05:18:32;80049.13;;;6.23;61.48
62680;BME280;68213;40.528;44.712;2023-05-01T05:19:36;80054.72;;;6.41;60.48
62680;BME280;68213;40.528;44.712;2023-05-01T05:20:39;80046.06;;;6.26;62.08
62680;BME280;68213;40.528;44.712;2023-05-01T05:21:39;80048.22;;;6.30;61.89
62680;BME280;68213;40.528;44.712;2023-05-01T05:22:40;80044.41;;;6.43;60.23
62680;BME280;68213;40.528;44.712;2023-05-01T05:23:41;80046.56;;;6.46;60.71
62680;BME280;68213;40.528;44.712;2023-05-01T05:24:42;80043.72;;;6.54;59.45
62680;BME280;68213;40.528;44.712;2023-05-01T05:25:43;80041.81;;;6.43;58.92
62680;BME280;68213;40.528;44.712;2023-05-01T05:26:44;80040.19;;;6.38;61.17
62680;BME280;68213;40.528;44.712;2023-05-01T05:27:44;80036.28;;;6.15;62.41
62680;BME280;68213;40.528;44.712;2023-05-01T05:28:45;80040.97;;;6.28;61.62
62680;BME280;68213;40.528;44.712;2023-05-01T05:29:46;80031.75;;;6.15;58.77
62680;BME280;68213;40.528;44.712;2023-05-01T05:30:46;80036.03;;;6.11;58.79
62680;BME280;68213;40.528;44.712;2023-05-01T05:31:47;80032.13;;;6.33;58.83
62680;BME280;68213;40.528;44.712;2023-05-01T05:32:47;80028.97;;;6.47;58.62
62680;BME280;68213;40.528;44.712;2023-05-01T05:33:48;80030.00;;;6.42;59.76
62680;BME280;68213;40.528;44.712;2023-05-01T05:34:49;80034.44;;;6.63;60.03
62680;BME280;68213;40.528;44.712;2023-05-01T05:35:52;80043.66;;;6.76;59.13
62680;BME280;68213;40.528;44.712;2023-05-01T05:36:53;80036.41;;;6.86;59.44
62680;BME280;68213;40.528;44.712;2023-05-01T05:37:54;80035.25;;;6.77;56.56
62680;BME280;68213;40.528;44.712;2023-05-01T05:38:54;80035.25;;;6.89;55.82
62680;BME280;68213;40.528;44.712;2023-05-01T05:39:55;80030.38;;;7.07;55.59
62680;BME280;68213;40.528;44.712;2023-05-01T05:40:56;80028.75;;;7.26;55.62
62680;BME280;68213;40.528;44.712;2023-05-01T05:41:58;80018.75;;;7.22;60.92